createdAt,value
2022-11-20T00:01:31.765Z,17.50
2022-11-20T00:04:00.243Z,17.60
2022-11-20T00:06:28.825Z,17.70
2022-11-20T00:08:58.237Z,17.70
2022-11-20T00:11:27.031Z,17.60
2022-11-20T00:13:56.612Z,17.50
2022-11-20T00:16:25.367Z,17.40
2022-11-20T00:18:52.813Z,17.30
2022-11-20T00:21:22.703Z,17.20
2022-11-20T00:23:51.148Z,17.30
2022-11-20T00:26:19.828Z,17.50
2022-11-20T00:28:52.413Z,17.60
2022-11-20T00:31:19.926Z,17.80
2022-11-20T00:33:47.251Z,18.20
2022-11-20T00:36:17.411Z,18.40
2022-11-20T00:38:45.422Z,18.60
2022-11-20T00:41:17.122Z,18.80
2022-11-20T00:43:44.586Z,19.00
2022-11-20T00:46:16.614Z,19.20
2022-11-20T00:48:44.237Z,19.20
2022-11-20T00:51:14.000Z,19.10
2022-11-20T00:53:41.077Z,19.20
2022-11-20T00:56:11.183Z,19.00
2022-11-20T00:58:40.444Z,18.90
2022-11-20T01:01:30.470Z,18.90
2022-11-20T01:03:59.570Z,18.90
2022-11-20T01:06:40.638Z,18.90
2022-11-20T01:09:15.559Z,18.90
2022-11-20T01:11:44.821Z,18.90
2022-11-20T01:14:14.964Z,19.10
2022-11-20T01:16:45.072Z,19.30
2022-11-20T01:19:17.665Z,19.00
2022-11-20T01:21:47.421Z,19.00
2022-11-20T01:24:16.432Z,18.70
2022-11-20T01:26:45.389Z,18.50
2022-11-20T01:29:16.299Z,18.70
2022-11-20T01:31:43.886Z,18.60
2022-11-20T01:34:14.453Z,18.80
2022-11-20T01:36:42.597Z,18.90
2022-11-20T01:39:21.925Z,18.70
2022-11-20T01:42:10.331Z,18.70
2022-11-20T01:44:59.973Z,18.70
2022-11-20T01:47:35.050Z,19.00
2022-11-20T01:50:19.929Z,19.00
2022-11-20T01:52:57.252Z,19.10
2022-11-20T01:55:28.504Z,19.50
2022-11-20T01:57:56.716Z,20.10
2022-11-20T02:00:23.692Z,19.10
2022-11-20T02:02:58.797Z,19.00
2022-11-20T02:05:33.898Z,19.00
2022-11-20T02:08:03.448Z,19.20
2022-11-20T02:10:31.377Z,19.20
2022-11-20T02:13:17.823Z,19.30
2022-11-20T02:15:46.179Z,19.40
2022-11-20T02:18:15.208Z,19.50
2022-11-20T02:20:45.991Z,19.30
2022-11-20T02:23:49.009Z,19.60
2022-11-20T02:26:17.136Z,19.30
2022-11-20T02:28:44.182Z,19.20
2022-11-20T02:31:11.192Z,19.40
2022-11-20T02:33:38.334Z,19.20
2022-11-20T02:36:05.855Z,19.70
2022-11-20T02:38:33.274Z,19.90
2022-11-20T02:41:00.252Z,19.80
2022-11-20T02:43:27.187Z,20.00
2022-11-20T02:45:54.328Z,19.70
2022-11-20T02:48:21.267Z,19.70
2022-11-20T02:50:48.287Z,19.90
2022-11-20T02:53:15.311Z,20.20
2022-11-20T02:55:42.395Z,20.40
2022-11-20T02:58:09.403Z,20.30
2022-11-20T03:00:36.624Z,20.40
2022-11-20T03:03:03.695Z,20.40
2022-11-20T03:05:30.678Z,20.70
2022-11-20T03:07:57.680Z,20.60
2022-11-20T03:10:24.655Z,20.20
2022-11-20T03:12:57.933Z,20.20
2022-11-20T03:15:25.148Z,19.90
2022-11-20T03:17:57.007Z,19.80
2022-11-20T03:20:24.647Z,19.60
2022-11-20T03:22:51.783Z,19.50
2022-11-20T03:25:20.588Z,19.90
2022-11-20T03:27:47.537Z,19.20
2022-11-20T03:30:15.756Z,19.10
2022-11-20T03:32:43.149Z,18.90
2022-11-20T03:35:11.070Z,18.90
2022-11-20T03:37:38.097Z,18.80
2022-11-20T03:40:05.708Z,18.90
2022-11-20T03:42:47.767Z,18.90
2022-11-20T03:45:19.767Z,18.90
2022-11-20T03:47:48.876Z,19.00
2022-11-20T03:50:16.426Z,19.00
2022-11-20T03:52:43.545Z,19.00
2022-11-20T03:55:10.671Z,18.80
2022-11-20T03:57:37.653Z,18.80
2022-11-20T04:00:06.624Z,18.80
2022-11-20T04:02:33.683Z,18.80
2022-11-20T04:05:00.626Z,18.90
2022-11-20T04:07:27.597Z,18.80
2022-11-20T04:09:54.673Z,18.80
2022-11-20T04:12:21.647Z,18.80
2022-11-20T04:14:48.606Z,18.80
2022-11-20T04:17:15.652Z,18.80
2022-11-20T04:19:42.727Z,18.80
2022-11-20T04:22:09.824Z,18.80
2022-11-20T04:24:36.799Z,18.70
2022-11-20T04:27:03.753Z,18.70
2022-11-20T04:29:30.718Z,18.90
2022-11-20T04:31:57.653Z,18.80
2022-11-20T04:34:24.670Z,18.60
2022-11-20T04:36:51.674Z,18.60
2022-11-20T04:39:18.888Z,18.50
2022-11-20T04:41:46.135Z,18.60
2022-11-20T04:44:13.298Z,18.60
2022-11-20T04:46:42.751Z,18.70
2022-11-20T04:49:11.628Z,18.80
2022-11-20T04:51:38.715Z,18.80
2022-11-20T04:54:05.782Z,18.90
2022-11-20T04:56:32.995Z,18.80
2022-11-20T04:59:03.737Z,18.80
2022-11-20T05:01:31.259Z,18.90
2022-11-20T05:03:58.236Z,19.00
2022-11-20T05:06:25.208Z,18.90
2022-11-20T05:08:52.380Z,19.00
2022-11-20T05:11:21.871Z,19.00
2022-11-20T05:13:52.057Z,18.90
2022-11-20T05:16:21.844Z,19.10
2022-11-20T05:18:49.635Z,19.20
2022-11-20T05:21:17.533Z,19.10
2022-11-20T05:23:45.619Z,19.10
2022-11-20T05:26:22.402Z,19.20
2022-11-20T05:28:50.430Z,19.20
2022-11-20T05:31:28.337Z,19.20
2022-11-20T05:33:57.215Z,19.20
2022-11-20T05:36:24.225Z,19.30
2022-11-20T05:38:51.947Z,19.40
2022-11-20T05:41:22.148Z,19.60
2022-11-20T05:43:50.810Z,19.70
2022-11-20T05:46:24.998Z,19.80
2022-11-20T05:48:55.175Z,20.00
2022-11-20T05:51:22.365Z,19.90
2022-11-20T05:53:49.570Z,19.80
2022-11-20T05:56:19.677Z,19.70
2022-11-20T05:58:47.402Z,19.50
2022-11-20T06:01:23.415Z,19.40
2022-11-20T06:03:52.722Z,19.50
2022-11-20T06:06:20.753Z,19.60
2022-11-20T06:08:48.261Z,19.50
2022-11-20T06:11:17.026Z,19.50
2022-11-20T06:13:46.485Z,19.40
2022-11-20T06:16:15.622Z,19.40
2022-11-20T06:18:42.703Z,19.30
2022-11-20T06:21:19.856Z,19.90
2022-11-20T06:23:47.702Z,19.30
2022-11-20T06:26:23.665Z,19.30
2022-11-20T06:28:51.764Z,19.40
2022-11-20T06:31:21.500Z,19.30
2022-11-20T06:33:49.635Z,19.30
2022-11-20T06:36:18.761Z,19.40
2022-11-20T06:38:45.884Z,19.50
2022-11-20T06:41:18.795Z,19.30
2022-11-20T06:43:46.066Z,19.40
2022-11-20T06:46:14.464Z,19.30
2022-11-20T06:48:41.948Z,19.20
2022-11-20T06:51:09.657Z,19.10
2022-11-20T06:53:37.446Z,19.10
2022-11-20T06:56:05.100Z,19.10
2022-11-20T06:58:34.193Z,19.10
2022-11-20T07:01:23.602Z,19.10
2022-11-20T07:03:54.346Z,19.00
2022-11-20T07:06:22.042Z,19.10
2022-11-20T07:08:51.263Z,19.00
2022-11-20T07:11:18.236Z,19.00
2022-11-20T07:13:46.389Z,19.10
2022-11-20T07:16:13.338Z,19.10
2022-11-20T07:18:40.300Z,19.10
2022-11-20T07:21:10.442Z,19.10
2022-11-20T07:23:37.880Z,19.10
2022-11-20T07:26:06.330Z,19.10
2022-11-20T07:28:33.916Z,19.10
2022-11-20T07:31:01.077Z,19.10
2022-11-20T07:33:28.353Z,19.00
2022-11-20T07:35:55.478Z,19.30
2022-11-20T07:38:22.644Z,19.40
2022-11-20T07:40:54.460Z,19.40
2022-11-20T07:43:22.614Z,19.40
2022-11-20T07:45:49.566Z,19.30
2022-11-20T07:48:16.517Z,19.40
2022-11-20T07:50:43.524Z,19.50
2022-11-20T07:53:10.474Z,19.60
2022-11-20T07:55:37.648Z,19.50
2022-11-20T07:58:04.587Z,19.70
2022-11-20T08:00:31.724Z,19.60
2022-11-20T08:02:58.796Z,19.60
2022-11-20T08:05:25.992Z,19.70
2022-11-20T08:07:52.958Z,19.40
2022-11-20T08:10:20.075Z,19.40
2022-11-20T08:13:10.163Z,19.30
2022-11-20T08:15:38.667Z,19.30
2022-11-20T08:21:03.444Z,19.30
2022-11-20T08:23:31.327Z,19.20
2022-11-20T08:25:58.751Z,19.20
2022-11-20T08:28:25.736Z,19.30
2022-11-20T08:31:00.596Z,19.40
2022-11-20T08:33:27.828Z,19.40
2022-11-20T08:35:54.770Z,19.40
2022-11-20T08:38:21.727Z,19.60
2022-11-20T08:41:08.662Z,19.60
2022-11-20T08:43:35.712Z,19.50
2022-11-20T08:46:02.899Z,19.40
2022-11-20T08:48:29.868Z,19.40
2022-11-20T08:51:00.488Z,19.30
2022-11-20T08:53:29.215Z,19.20
2022-11-20T08:55:57.629Z,19.20
2022-11-20T08:58:24.719Z,19.20
2022-11-20T09:00:53.529Z,19.20
2022-11-20T09:03:21.762Z,19.20
2022-11-20T09:05:48.838Z,19.20
2022-11-20T09:08:17.899Z,19.40
2022-11-20T09:10:45.176Z,19.50
2022-11-20T09:13:12.278Z,19.60
2022-11-20T09:15:39.265Z,19.70
2022-11-20T09:18:09.162Z,19.80
2022-11-20T09:20:39.344Z,19.80
2022-11-20T09:23:08.268Z,19.80
2022-11-20T09:25:35.476Z,19.60
2022-11-20T09:28:02.552Z,20.00
2022-11-20T09:30:29.608Z,20.00
2022-11-20T09:32:58.072Z,19.80
2022-11-20T09:35:28.737Z,19.70
2022-11-20T09:37:55.712Z,19.70
2022-11-20T09:40:28.626Z,19.80
2022-11-20T09:43:20.839Z,19.70
2022-11-20T09:46:08.600Z,19.50
2022-11-20T09:48:39.095Z,19.50
2022-11-20T09:51:26.725Z,19.70
2022-11-20T09:54:16.725Z,19.70
2022-11-20T09:56:48.888Z,19.70
2022-11-20T09:59:33.465Z,19.90
2022-11-20T10:02:01.888Z,19.80
2022-11-20T10:04:36.711Z,19.90
2022-11-20T10:07:31.779Z,19.80
2022-11-20T10:10:00.203Z,20.40
2022-11-20T10:12:42.625Z,19.80
2022-11-20T10:15:49.225Z,19.90
2022-11-20T10:18:47.823Z,19.80
2022-11-20T10:21:28.774Z,19.60
2022-11-20T10:24:11.432Z,19.60
2022-11-20T10:27:02.604Z,19.40
2022-11-20T10:29:42.461Z,19.30
2022-11-20T10:32:16.397Z,19.30
2022-11-20T10:34:59.338Z,19.40
2022-11-20T10:37:32.214Z,19.40
2022-11-20T10:40:17.452Z,19.50
2022-11-20T10:42:59.014Z,19.40
2022-11-20T10:45:28.897Z,19.50
2022-11-20T10:48:05.479Z,19.50
2022-11-20T10:50:36.023Z,19.60
2022-11-20T10:53:41.042Z,19.70
2022-11-20T10:56:37.021Z,19.90
2022-11-20T10:59:28.987Z,20.00
2022-11-20T11:01:57.272Z,20.20
2022-11-20T11:04:41.152Z,20.90
2022-11-20T11:07:19.328Z,21.30
2022-11-20T11:09:53.107Z,21.70
2022-11-20T11:12:24.377Z,22.20
2022-11-20T11:14:54.541Z,22.00
2022-11-20T11:17:36.058Z,22.10
2022-11-20T11:20:05.386Z,22.20
2022-11-20T11:22:34.320Z,22.00
2022-11-20T11:25:01.858Z,22.10
2022-11-20T11:27:28.861Z,22.60
2022-11-20T11:30:16.890Z,22.60
2022-11-20T11:32:46.198Z,23.50
2022-11-20T11:35:28.396Z,24.10
2022-11-20T11:38:18.363Z,23.80
2022-11-20T11:40:45.752Z,23.20
2022-11-20T11:43:50.939Z,23.30
2022-11-20T11:46:38.556Z,23.40
2022-11-20T11:49:12.535Z,23.10
2022-11-20T11:52:20.585Z,23.50
2022-11-20T11:55:00.887Z,23.10
2022-11-20T11:57:48.536Z,22.60
2022-11-20T12:00:21.487Z,22.30
2022-11-20T12:02:51.441Z,22.40
2022-11-20T12:05:37.009Z,22.00
2022-11-20T12:08:24.624Z,21.80
2022-11-20T12:11:13.083Z,21.70
2022-11-20T12:14:06.571Z,21.70
2022-11-20T12:16:39.012Z,21.80
2022-11-20T12:19:14.339Z,22.10
2022-11-20T12:21:59.820Z,21.90
2022-11-20T12:24:44.024Z,22.60
2022-11-20T12:27:16.889Z,22.70
2022-11-20T12:30:02.144Z,22.70
2022-11-20T12:32:56.897Z,23.30
2022-11-20T12:35:48.989Z,23.50
2022-11-20T12:38:25.328Z,23.30
2022-11-20T12:41:07.482Z,23.10
2022-11-20T12:44:35.689Z,22.80
2022-11-20T12:47:17.405Z,23.20
2022-11-20T12:50:00.242Z,23.10
2022-11-20T12:52:52.254Z,22.60
2022-11-20T12:55:48.221Z,22.60
2022-11-20T12:59:02.271Z,22.60
2022-11-20T13:01:51.490Z,23.70
2022-11-20T13:04:37.136Z,23.60
2022-11-20T13:07:07.662Z,23.00
2022-11-20T13:09:38.767Z,23.20
2022-11-20T13:12:23.787Z,23.90
2022-11-20T13:15:17.090Z,23.70
2022-11-20T13:17:55.237Z,23.80
2022-11-20T13:20:22.711Z,23.40
2022-11-20T13:22:52.953Z,22.90
2022-11-20T13:25:33.495Z,23.00
2022-11-20T13:28:30.526Z,22.90
2022-11-20T13:31:00.137Z,22.80
2022-11-20T13:33:40.228Z,23.30
2022-11-20T13:36:20.611Z,23.30
2022-11-20T13:38:49.860Z,23.00
2022-11-20T13:41:32.367Z,23.20
2022-11-20T13:44:09.190Z,23.10
2022-11-20T13:46:45.034Z,22.80
2022-11-20T13:49:30.674Z,22.60
2022-11-20T13:52:29.039Z,22.50
2022-11-20T13:54:59.557Z,22.50
2022-11-20T13:57:47.689Z,22.60
2022-11-20T14:00:20.719Z,22.50
2022-11-20T14:03:02.360Z,22.30
2022-11-20T14:05:33.238Z,22.40
2022-11-20T14:08:00.508Z,22.50
2022-11-20T14:10:32.547Z,22.70
2022-11-20T14:13:00.207Z,22.40
2022-11-20T14:15:39.257Z,22.60
2022-11-20T14:18:23.165Z,22.70
2022-11-20T14:20:50.129Z,23.10
2022-11-20T14:23:29.988Z,23.00
2022-11-20T14:25:57.968Z,22.90
2022-11-20T14:28:32.608Z,23.30
2022-11-20T14:30:59.721Z,23.30
2022-11-20T14:33:28.067Z,23.10
2022-11-20T14:35:58.133Z,22.80
2022-11-20T14:38:27.898Z,22.80
2022-11-20T14:40:55.234Z,23.10
2022-11-20T14:43:30.157Z,22.90
2022-11-20T14:46:04.480Z,22.70
2022-11-20T14:48:38.879Z,22.40
2022-11-20T14:51:05.891Z,22.80
2022-11-20T14:53:32.891Z,22.80
2022-11-20T14:56:01.691Z,22.90
2022-11-20T14:58:34.520Z,22.70
2022-11-20T15:01:05.195Z,23.10
2022-11-20T15:03:37.907Z,23.10
2022-11-20T15:06:11.578Z,22.80
2022-11-20T15:08:39.122Z,22.80
2022-11-20T15:11:24.288Z,23.30
2022-11-20T15:13:51.617Z,23.00
2022-11-20T15:16:24.759Z,22.80
2022-11-20T15:18:52.500Z,22.70
2022-11-20T15:21:22.009Z,22.50
2022-11-20T15:23:49.710Z,22.80
2022-11-20T15:26:26.745Z,23.10
2022-11-20T15:28:54.283Z,23.00
2022-11-20T15:31:23.933Z,22.60
2022-11-20T15:33:52.324Z,22.40
2022-11-20T15:36:20.028Z,22.30
2022-11-20T15:38:47.231Z,22.70
2022-11-20T15:41:14.243Z,22.20
2022-11-20T15:43:41.233Z,22.00
2022-11-20T15:46:15.137Z,22.00
2022-11-20T15:48:55.410Z,22.10
2022-11-20T15:51:35.182Z,22.20
2022-11-20T15:54:10.626Z,22.30
2022-11-20T15:56:38.485Z,22.60
2022-11-20T15:59:05.504Z,22.80
2022-11-20T16:01:32.825Z,22.60
2022-11-20T16:04:01.099Z,22.50
2022-11-20T16:06:28.190Z,22.70
2022-11-20T16:08:55.224Z,23.10
2022-11-20T16:11:22.493Z,23.20
2022-11-20T16:14:07.697Z,22.80
2022-11-20T16:16:37.954Z,22.60
2022-11-20T16:19:05.253Z,22.50
2022-11-20T16:21:33.558Z,22.60
2022-11-20T16:24:05.683Z,22.70
2022-11-20T16:26:33.452Z,22.70
2022-11-20T16:29:01.050Z,22.50
2022-11-20T16:31:28.305Z,22.20
2022-11-20T16:33:57.662Z,22.10
2022-11-20T16:36:27.214Z,22.00
2022-11-20T16:38:56.071Z,22.00
2022-11-20T16:41:23.797Z,21.80
2022-11-20T16:43:57.125Z,21.80
2022-11-20T16:46:26.601Z,22.00
2022-11-20T16:48:56.563Z,22.00
2022-11-20T16:51:24.965Z,22.10
2022-11-20T16:53:52.379Z,21.90
2022-11-20T16:56:21.874Z,21.60
2022-11-20T16:58:51.050Z,21.80
2022-11-20T17:01:21.503Z,21.90
2022-11-20T17:03:58.605Z,21.70
2022-11-20T17:06:30.613Z,21.50
2022-11-20T17:08:58.301Z,22.00
2022-11-20T17:11:26.067Z,22.00
2022-11-20T17:13:55.118Z,21.90
2022-11-20T17:16:24.771Z,22.10
2022-11-20T17:18:52.025Z,22.00
2022-11-20T17:21:19.922Z,22.30
2022-11-20T17:23:47.605Z,22.20
2022-11-20T17:26:17.864Z,21.80
2022-11-20T17:28:46.654Z,22.10
2022-11-20T17:31:29.153Z,22.20
2022-11-20T17:34:00.455Z,22.80
2022-11-20T17:36:28.925Z,23.30
2022-11-20T17:38:58.249Z,22.90
2022-11-20T17:41:28.826Z,23.40
2022-11-20T17:44:00.649Z,23.40
2022-11-20T17:46:35.556Z,23.20
2022-11-20T17:49:03.054Z,23.20
2022-11-20T17:51:37.978Z,23.40
2022-11-20T17:54:07.742Z,23.50
2022-11-20T17:56:54.175Z,23.60
2022-11-20T17:59:21.510Z,23.60
2022-11-20T18:01:49.633Z,23.90
2022-11-20T18:04:17.167Z,23.60
2022-11-20T18:06:45.137Z,23.80
2022-11-20T18:09:12.829Z,23.80
2022-11-20T18:11:42.011Z,23.50
2022-11-20T18:14:31.057Z,23.60
2022-11-20T18:17:07.041Z,23.80
2022-11-20T18:19:41.141Z,24.20
2022-11-20T18:22:16.724Z,23.80
2022-11-20T18:24:44.055Z,23.70
2022-11-20T18:27:19.383Z,23.90
2022-11-20T18:29:48.785Z,23.50
2022-11-20T18:32:17.223Z,23.60
2022-11-20T18:34:44.388Z,24.00
2022-11-20T18:37:14.826Z,24.30
2022-11-20T18:39:42.405Z,24.80
2022-11-20T18:42:33.018Z,25.50
2022-11-20T18:45:01.487Z,25.60
2022-11-20T18:47:31.020Z,26.60
2022-11-20T18:50:01.237Z,26.20
2022-11-20T18:52:34.167Z,26.20
2022-11-20T18:55:02.921Z,26.20
2022-11-20T18:57:30.747Z,25.70
2022-11-20T19:00:06.401Z,26.70
2022-11-20T19:02:40.582Z,26.40
2022-11-20T19:05:12.724Z,26.60
2022-11-20T19:07:40.503Z,26.70
2022-11-20T19:10:08.105Z,26.70
2022-11-20T19:12:35.500Z,26.50
2022-11-20T19:15:02.743Z,26.30
2022-11-20T19:17:29.783Z,26.70
2022-11-20T19:19:56.721Z,26.70
2022-11-20T19:22:23.810Z,26.80
2022-11-20T19:24:51.039Z,26.70
2022-11-20T19:27:18.020Z,26.60
2022-11-20T19:29:45.003Z,25.90
2022-11-20T19:32:12.050Z,25.20
2022-11-20T19:34:39.231Z,24.80
2022-11-20T19:37:06.905Z,25.20
2022-11-20T19:39:35.601Z,25.50
2022-11-20T19:42:03.411Z,25.40
2022-11-20T19:44:30.540Z,25.50
2022-11-20T19:46:58.718Z,25.60
2022-11-20T19:49:26.097Z,24.90
2022-11-20T19:51:53.533Z,24.90
2022-11-20T19:54:20.618Z,24.80
2022-11-20T19:56:49.548Z,24.40
2022-11-20T19:59:16.769Z,24.40
2022-11-20T20:01:43.913Z,24.50
2022-11-20T20:04:11.005Z,24.40
2022-11-20T20:06:39.162Z,24.30
2022-11-20T20:09:12.235Z,24.80
2022-11-20T20:11:40.162Z,24.20
2022-11-20T20:14:14.636Z,24.30
2022-11-20T20:16:42.576Z,24.60
2022-11-20T20:19:14.701Z,24.40
2022-11-20T20:21:41.899Z,24.70
2022-11-20T20:24:10.757Z,25.10
2022-11-20T20:26:38.398Z,24.60
2022-11-20T20:29:05.635Z,25.00
2022-11-20T20:31:33.958Z,25.10
2022-11-20T20:34:03.408Z,24.60
2022-11-20T20:36:30.813Z,24.20
2022-11-20T20:38:59.844Z,24.00
2022-11-20T20:41:27.097Z,23.60
2022-11-20T20:44:12.898Z,23.80
2022-11-20T20:46:40.609Z,24.20
2022-11-20T20:49:08.297Z,24.00
2022-11-20T20:51:35.688Z,24.10
2022-11-20T20:54:02.852Z,23.70
2022-11-20T20:56:29.814Z,23.40
2022-11-20T20:58:56.990Z,24.00
2022-11-20T21:01:28.680Z,25.00
2022-11-20T21:03:58.055Z,25.60
2022-11-20T21:06:25.628Z,26.00
2022-11-20T21:08:52.824Z,25.80
2022-11-20T21:11:21.271Z,26.00
2022-11-20T21:13:49.352Z,25.70
2022-11-20T21:16:17.783Z,26.20
2022-11-20T21:18:45.125Z,26.80
2022-11-20T21:21:32.630Z,27.10
2022-11-20T21:23:59.978Z,26.70
2022-11-20T21:26:27.079Z,26.80
2022-11-20T21:28:54.338Z,26.60
2022-11-20T21:31:24.922Z,26.40
2022-11-20T21:33:53.945Z,26.20
2022-11-20T21:36:23.410Z,26.30
2022-11-20T21:38:53.644Z,25.90
2022-11-20T21:41:20.959Z,26.00
2022-11-20T21:44:09.154Z,26.20
2022-11-20T21:46:38.161Z,26.80
2022-11-20T21:49:05.401Z,26.40
2022-11-20T21:51:33.428Z,25.70
2022-11-20T21:54:00.899Z,25.30
2022-11-20T21:56:28.564Z,25.10
2022-11-20T21:58:56.075Z,25.30
2022-11-20T22:01:26.157Z,24.70
2022-11-20T22:03:59.024Z,25.20
2022-11-20T22:06:29.813Z,25.40
2022-11-20T22:08:56.875Z,25.30
2022-11-20T22:11:23.944Z,25.00
2022-11-20T22:14:09.513Z,24.60
2022-11-20T22:16:38.036Z,24.50
2022-11-20T22:19:05.940Z,24.10
2022-11-20T22:21:33.402Z,23.40
2022-11-20T22:24:01.203Z,22.80
2022-11-20T22:26:30.703Z,22.60
2022-11-20T22:28:59.162Z,22.90
2022-11-20T22:31:28.418Z,22.70
2022-11-20T22:33:56.235Z,23.10
2022-11-20T22:36:30.796Z,23.40
2022-11-20T22:38:58.336Z,24.20
2022-11-20T22:41:28.139Z,24.70
2022-11-20T22:44:00.556Z,24.80
2022-11-20T22:46:29.466Z,24.90
2022-11-20T22:49:02.054Z,25.30
2022-11-20T22:51:31.560Z,24.90
2022-11-20T22:53:58.913Z,25.20
2022-11-20T22:56:26.322Z,25.10
2022-11-20T22:58:53.878Z,25.20
2022-11-20T23:01:31.444Z,25.00
2022-11-20T23:04:03.028Z,24.90
2022-11-20T23:06:35.616Z,25.80
2022-11-20T23:09:06.592Z,26.60
2022-11-20T23:11:33.510Z,26.90
2022-11-20T23:14:05.782Z,27.90
2022-11-20T23:16:33.883Z,27.70
2022-11-20T23:19:05.222Z,27.10
2022-11-20T23:21:33.427Z,26.60
2022-11-20T23:24:01.007Z,26.40
2022-11-20T23:26:30.779Z,26.50
2022-11-20T23:28:59.639Z,26.40
2022-11-20T23:31:28.988Z,25.90
2022-11-20T23:33:56.038Z,25.20
2022-11-20T23:36:24.378Z,25.30
2022-11-20T23:38:51.544Z,26.40
2022-11-20T23:41:18.751Z,26.10
2022-11-20T23:43:45.765Z,26.10
2022-11-20T23:46:16.467Z,26.20
2022-11-20T23:48:45.611Z,25.90
2022-11-20T23:51:13.275Z,25.60
2022-11-20T23:53:40.350Z,25.80
2022-11-20T23:56:07.916Z,25.90
2022-11-20T23:58:38.002Z,25.90
